Time,TemperatureF,DewpointF,PressureIn,WindDirection,WindDirectionDegrees,WindSpeedMPH,WindSpeedGustMPH,Humidity,HourlyPrecipIn,Conditions,Clouds,dailyrainin,SoftwareType,DateUTC
2013-10-08 00:09:00,55.0,54.0,29.93,ENE,61,0.0,-999.0,96,-99.99,,,0.00,weatherlink.com 1.10,2013-10-08 04:09:00,
2013-10-08 00:24:00,54.3,53.0,29.95,ENE,61,0.0,-999.0,96,-99.99,,,0.00,weatherlink.com 1.10,2013-10-08 04:24:00,
2013-10-08 00:39:00,53.8,53.0,29.95,ENE,61,0.0,-999.0,96,-99.99,,,0.00,weatherlink.com 1.10,2013-10-08 04:39:00,
2013-10-08 00:54:00,53.5,52.0,29.95,ENE,61,0.0,-999.0,96,-99.99,,,0.00,weatherlink.com 1.10,2013-10-08 04:54:00,
2013-10-08 01:09:00,53.0,52.0,29.97,ENE,61,0.0,-999.0,97,-99.99,,,0.00,weatherlink.com 1.10,2013-10-08 05:09:00,
2013-10-08 01:24:00,52.6,52.0,29.98,ENE,61,0.0,-999.0,97,-99.99,,,0.00,weatherlink.com 1.10,2013-10-08 05:24:00,
2013-10-08 01:39:00,52.2,51.0,29.98,ENE,61,0.0,-999.0,96,-99.99,,,0.00,weatherlink.com 1.10,2013-10-08 05:39:00,
2013-10-08 01:54:00,51.7,51.0,29.99,ENE,61,0.0,-999.0,96,-99.99,,,0.00,weatherlink.com 1.10,2013-10-08 05:54:00,
2013-10-08 02:09:00,51.1,50.0,29.99,ENE,61,0.0,-999.0,96,-99.99,,,0.00,weatherlink.com 1.10,2013-10-08 06:09:00,
2013-10-08 02:24:00,50.6,50.0,29.99,ENE,61,0.0,-999.0,96,-99.99,,,0.00,weatherlink.com 1.10,2013-10-08 06:24:00,
2013-10-08 02:39:00,50.0,49.0,29.99,ENE,61,0.0,-999.0,96,-99.99,,,0.00,weatherlink.com 1.10,2013-10-08 06:39:00,
2013-10-08 02:54:00,49.6,49.0,30.00,ENE,61,0.0,-999.0,97,-99.99,,,0.00,weatherlink.com 1.10,2013-10-08 06:54:00,
2013-10-08 03:09:00,49.2,48.0,30.00,ENE,61,0.0,-999.0,97,-99.99,,,0.00,weatherlink.com 1.10,2013-10-08 07:09:00,
2013-10-08 03:24:00,48.7,48.0,30.01,ENE,61,0.0,-999.0,97,-99.99,,,0.00,weatherlink.com 1.10,2013-10-08 07:24:00,
2013-10-08 03:39:00,48.3,48.0,30.02,ENE,61,0.0,-999.0,97,-99.99,,,0.00,weatherlink.com 1.10,2013-10-08 07:39:00,
2013-10-08 03:54:00,47.9,47.0,30.02,ENE,61,0.0,-999.0,97,-99.99,,,0.00,weatherlink.com 1.10,2013-10-08 07:54:00,
2013-10-08 04:09:00,47.5,47.0,30.04,ENE,61,0.0,-999.0,97,-99.99,,,0.00,weatherlink.com 1.10,2013-10-08 08:09:00,
2013-10-08 04:24:00,47.3,47.0,30.04,ENE,61,0.0,-999.0,97,-99.99,,,0.00,weatherlink.com 1.10,2013-10-08 08:24:00,
2013-10-08 04:40:00,47.2,46.0,30.04,ENE,61,0.0,-999.0,97,-99.99,,,0.00,weatherlink.com 1.10,2013-10-08 08:40:00,
2013-10-08 04:55:00,46.7,46.0,30.05,ENE,61,0.0,-999.0,97,-99.99,,,0.00,weatherlink.com 1.10,2013-10-08 08:55:00,
2013-10-08 05:10:00,46.2,45.0,30.06,ENE,61,0.0,-999.0,97,-99.99,,,0.00,weatherlink.com 1.10,2013-10-08 09:10:00,
2013-10-08 05:25:00,45.8,45.0,30.07,ENE,61,0.0,-999.0,97,-99.99,,,0.00,weatherlink.com 1.10,2013-10-08 09:25:00,
2013-10-08 05:40:00,45.6,45.0,30.07,ENE,61,0.0,-999.0,97,-99.99,,,0.00,weatherlink.com 1.10,2013-10-08 09:40:00,
2013-10-08 05:55:00,45.4,45.0,30.08,ENE,61,0.0,-999.0,97,-99.99,,,0.00,weatherlink.com 1.10,2013-10-08 09:55:00,
2013-10-08 06:10:00,45.3,45.0,30.09,ENE,61,1.0,-999.0,97,-99.99,,,0.00,weatherlink.com 1.10,2013-10-08 10:10:00,
2013-10-08 06:25:00,45.1,44.0,30.10,ENE,61,0.0,-999.0,97,-99.99,,,0.00,weatherlink.com 1.10,2013-10-08 10:25:00,
2013-10-08 06:40:00,44.9,44.0,30.11,ENE,61,0.0,-999.0,97,-99.99,,,0.00,weatherlink.com 1.10,2013-10-08 10:40:00,
2013-10-08 06:55:00,44.5,44.0,30.12,ENE,61,0.0,-999.0,97,-99.99,,,0.01,weatherlink.com 1.10,2013-10-08 10:55:00,
2013-10-08 07:10:00,44.6,44.0,30.13,ENE,61,0.0,-999.0,98,-99.99,,,0.01,weatherlink.com 1.10,2013-10-08 11:10:00,
2013-10-08 07:25:00,44.7,44.0,30.14,ENE,61,0.0,-999.0,98,-99.99,,,0.01,weatherlink.com 1.10,2013-10-08 11:25:00,
2013-10-08 07:40:00,44.9,44.0,30.15,ENE,61,0.0,-999.0,98,-99.99,,,0.01,weatherlink.com 1.10,2013-10-08 11:40:00,
2013-10-08 07:55:00,44.9,44.0,30.15,ENE,61,0.0,-999.0,98,-99.99,,,0.01,weatherlink.com 1.10,2013-10-08 11:55:00,
2013-10-08 08:10:00,44.8,44.0,30.17,ENE,61,0.0,-999.0,98,-99.99,,,0.01,weatherlink.com 1.10,2013-10-08 12:10:00,
2013-10-08 08:25:00,45.7,45.0,30.18,ENE,61,0.0,-999.0,98,-99.99,,,0.01,weatherlink.com 1.10,2013-10-08 12:25:00,
2013-10-08 08:40:00,47.4,47.0,30.19,ENE,61,0.0,-999.0,98,-99.99,,,0.01,weatherlink.com 1.10,2013-10-08 12:40:00,
2013-10-08 08:55:00,50.8,51.0,30.20,ENE,61,0.0,-999.0,99,-99.99,,,0.01,weatherlink.com 1.10,2013-10-08 12:55:00,
2013-10-08 09:10:00,52.6,52.0,30.20,ENE,61,0.0,-999.0,99,-99.99,,,0.01,weatherlink.com 1.10,2013-10-08 13:10:00,
2013-10-08 09:25:00,54.6,54.0,30.21,ENE,61,0.0,-999.0,99,-99.99,,,0.01,weatherlink.com 1.10,2013-10-08 13:25:00,
2013-10-08 09:40:00,54.2,54.0,30.21,NW,311,0.0,-999.0,99,-99.99,,,0.01,weatherlink.com 1.10,2013-10-08 13:40:00,
2013-10-08 09:55:00,54.8,53.0,30.22,NW,314,0.0,-999.0,95,-99.99,,,0.01,weatherlink.com 1.10,2013-10-08 13:55:00,
2013-10-08 10:10:00,55.5,52.0,30.22,WNW,294,0.0,-999.0,88,-99.99,,,0.01,weatherlink.com 1.10,2013-10-08 14:10:00,
2013-10-08 10:25:00,56.6,52.0,30.23,NW,315,0.0,-999.0,84,-99.99,,,0.01,weatherlink.com 1.10,2013-10-08 14:25:00,
2013-10-08 10:40:00,58.5,53.0,30.23,NNW,334,0.0,-999.0,81,-99.99,,,0.01,weatherlink.com 1.10,2013-10-08 14:40:00,
2013-10-08 10:55:00,59.9,53.0,30.23,NNW,344,0.0,-999.0,78,-99.99,,,0.01,weatherlink.com 1.10,2013-10-08 14:55:00,
2013-10-08 11:11:00,60.0,51.0,30.24,NNW,333,0.0,-999.0,73,-99.99,,,0.01,weatherlink.com 1.10,2013-10-08 15:11:00,
2013-10-08 11:26:00,61.1,52.0,30.24,WNW,294,0.0,-999.0,71,-99.99,,,0.01,weatherlink.com 1.10,2013-10-08 15:26:00,
2013-10-08 11:41:00,61.6,52.0,30.23,West,275,0.0,-999.0,71,-99.99,,,0.01,weatherlink.com 1.10,2013-10-08 15:41:00,
2013-10-08 11:56:00,62.4,52.0,30.24,ENE,69,0.0,-999.0,68,-99.99,,,0.01,weatherlink.com 1.10,2013-10-08 15:56:00,
2013-10-08 12:11:00,63.6,51.0,30.24,NW,308,0.0,-999.0,64,-99.99,,,0.01,weatherlink.com 1.10,2013-10-08 16:11:00,
2013-10-08 12:26:00,63.8,52.0,30.24,WNW,291,0.0,-999.0,65,-99.99,,,0.01,weatherlink.com 1.10,2013-10-08 16:26:00,
2013-10-08 12:41:00,63.8,49.0,30.24,West,275,0.0,-999.0,59,-99.99,,,0.01,weatherlink.com 1.10,2013-10-08 16:41:00,
2013-10-08 12:56:00,64.3,49.0,30.24,SW,219,0.0,-999.0,58,-99.99,,,0.01,weatherlink.com 1.10,2013-10-08 16:56:00,
2013-10-08 13:11:00,64.5,50.0,30.24,WSW,240,1.0,-999.0,59,-99.99,,,0.01,weatherlink.com 1.10,2013-10-08 17:11:00,
2013-10-08 13:26:00,64.8,49.0,30.24,SW,222,0.0,-999.0,58,-99.99,,,0.01,weatherlink.com 1.10,2013-10-08 17:26:00,
2013-10-08 13:41:00,64.7,51.0,30.24,South,182,0.0,-999.0,61,-99.99,,,0.01,weatherlink.com 1.10,2013-10-08 17:41:00,
2013-10-08 13:56:00,64.7,47.0,30.23,WSW,251,1.0,-999.0,54,-99.99,,,0.01,weatherlink.com 1.10,2013-10-08 17:56:00,
2013-10-08 14:11:00,64.8,49.0,30.23,NNE,24,0.0,-999.0,56,-99.99,,,0.01,weatherlink.com 1.10,2013-10-08 18:11:00,
2013-10-08 14:26:00,65.1,48.0,30.23,West,271,2.0,-999.0,54,-99.99,,,0.01,weatherlink.com 1.10,2013-10-08 18:26:00,
2013-10-08 14:41:00,64.5,46.0,30.24,WSW,254,0.0,-999.0,52,-99.99,,,0.01,weatherlink.com 1.10,2013-10-08 18:41:00,
2013-10-08 14:56:00,63.2,48.0,30.24,NW,305,0.0,-999.0,59,-99.99,,,0.01,weatherlink.com 1.10,2013-10-08 18:56:00,
2013-10-08 15:11:00,62.5,50.0,30.24,North,9,0.0,-999.0,64,-99.99,,,0.01,weatherlink.com 1.10,2013-10-08 19:11:00,
2013-10-08 15:26:00,62.3,48.0,30.24,WNW,284,0.0,-999.0,60,-99.99,,,0.01,weatherlink.com 1.10,2013-10-08 19:26:00,
2013-10-08 15:41:00,62.1,49.0,30.24,SE,144,0.0,-999.0,63,-99.99,,,0.01,weatherlink.com 1.10,2013-10-08 19:41:00,
2013-10-08 15:56:00,61.1,48.0,30.25,SSW,192,0.0,-999.0,63,-99.99,,,0.01,weatherlink.com 1.10,2013-10-08 19:56:00,
2013-10-08 16:11:00,60.0,47.0,30.25,SSW,198,0.0,-999.0,63,-99.99,,,0.01,weatherlink.com 1.10,2013-10-08 20:11:00,
2013-10-08 16:26:00,59.3,48.0,30.26,SSW,207,1.0,-999.0,66,-99.99,,,0.01,weatherlink.com 1.10,2013-10-08 20:26:00,
2013-10-08 16:41:00,59.0,49.0,30.28,SSW,207,0.0,-999.0,69,-99.99,,,0.01,weatherlink.com 1.10,2013-10-08 20:41:00,
2013-10-08 16:56:00,58.1,49.0,30.28,SSW,207,0.0,-999.0,71,-99.99,,,0.01,weatherlink.com 1.10,2013-10-08 20:56:00,
2013-10-08 17:11:00,57.3,48.0,30.29,SSW,207,0.0,-999.0,72,-99.99,,,0.01,weatherlink.com 1.10,2013-10-08 21:11:00,
2013-10-08 17:26:00,56.5,48.0,30.30,SSW,207,0.0,-999.0,72,-99.99,,,0.01,weatherlink.com 1.10,2013-10-08 21:26:00,
2013-10-08 17:41:00,55.7,47.0,30.31,SSW,207,0.0,-999.0,73,-99.99,,,0.01,weatherlink.com 1.10,2013-10-08 21:41:00,
2013-10-08 17:56:00,54.6,48.0,30.31,SSW,207,0.0,-999.0,77,-99.99,,,0.01,weatherlink.com 1.10,2013-10-08 21:56:00,
2013-10-08 18:11:00,53.2,48.0,30.32,SSW,207,0.0,-999.0,82,-99.99,,,0.01,weatherlink.com 1.10,2013-10-08 22:11:00,
2013-10-08 18:26:00,51.7,47.0,30.32,SSW,207,0.0,-999.0,83,-99.99,,,0.01,weatherlink.com 1.10,2013-10-08 22:26:00,
2013-10-08 18:41:00,50.4,46.0,30.32,SSW,207,0.0,-999.0,85,-99.99,,,0.01,weatherlink.com 1.10,2013-10-08 22:41:00,
2013-10-08 18:56:00,49.2,46.0,30.33,SSW,207,0.0,-999.0,88,-99.99,,,0.01,weatherlink.com 1.10,2013-10-08 22:56:00,
2013-10-08 19:11:00,48.2,45.0,30.34,SSW,207,0.0,-999.0,89,-99.99,,,0.01,weatherlink.com 1.10,2013-10-08 23:11:00,
2013-10-08 19:26:00,47.2,45.0,30.34,SSW,207,0.0,-999.0,91,-99.99,,,0.01,weatherlink.com 1.10,2013-10-08 23:26:00,
2013-10-08 19:41:00,46.4,44.0,30.35,SSW,207,0.0,-999.0,92,-99.99,,,0.01,weatherlink.com 1.10,2013-10-08 23:41:00,
2013-10-08 19:56:00,45.6,44.0,30.35,SSW,207,0.0,-999.0,92,-99.99,,,0.01,weatherlink.com 1.10,2013-10-08 23:56:00,
2013-10-08 20:11:00,44.8,43.0,30.36,SSW,207,0.0,-999.0,92,-99.99,,,0.01,weatherlink.com 1.10,2013-10-09 00:11:00,
2013-10-08 20:26:00,44.0,42.0,30.36,SSW,207,0.0,-999.0,92,-99.99,,,0.01,weatherlink.com 1.10,2013-10-09 00:26:00,
2013-10-08 20:41:00,43.4,42.0,30.38,SSW,207,0.0,-999.0,93,-99.99,,,0.01,weatherlink.com 1.10,2013-10-09 00:41:00,
2013-10-08 20:56:00,42.9,41.0,30.38,SSW,207,0.0,-999.0,94,-99.99,,,0.01,weatherlink.com 1.10,2013-10-09 00:56:00,
2013-10-08 21:12:00,42.4,41.0,30.38,SSW,207,0.0,-999.0,94,-99.99,,,0.01,weatherlink.com 1.10,2013-10-09 01:12:00,
2013-10-08 21:27:00,42.1,41.0,30.38,SSW,207,0.0,-999.0,95,-99.99,,,0.01,weatherlink.com 1.10,2013-10-09 01:27:00,
2013-10-08 21:42:00,41.6,40.0,30.38,SSW,207,0.0,-999.0,95,-99.99,,,0.01,weatherlink.com 1.10,2013-10-09 01:42:00,
2013-10-08 21:57:00,41.1,40.0,30.39,SSW,207,0.0,-999.0,95,-99.99,,,0.01,weatherlink.com 1.10,2013-10-09 01:57:00,
2013-10-08 22:12:00,40.9,40.0,30.40,SSW,207,0.0,-999.0,95,-99.99,,,0.01,weatherlink.com 1.10,2013-10-09 02:12:00,
2013-10-08 22:27:00,40.4,39.0,30.40,SSW,207,0.0,-999.0,95,-99.99,,,0.01,weatherlink.com 1.10,2013-10-09 02:27:00,
2013-10-08 22:42:00,40.2,39.0,30.40,SSW,207,0.0,-999.0,95,-99.99,,,0.01,weatherlink.com 1.10,2013-10-09 02:42:00,
2013-10-08 22:57:00,39.7,38.0,30.40,SSW,207,0.0,-999.0,95,-99.99,,,0.01,weatherlink.com 1.10,2013-10-09 02:57:00,
2013-10-08 23:12:00,39.2,38.0,30.41,SSW,207,0.0,-999.0,95,-99.99,,,0.01,weatherlink.com 1.10,2013-10-09 03:12:00,
2013-10-08 23:27:00,39.0,38.0,30.42,SSW,207,0.0,-999.0,96,-99.99,,,0.01,weatherlink.com 1.10,2013-10-09 03:27:00,
2013-10-08 23:42:00,38.8,38.0,30.42,SSW,207,0.0,-999.0,96,-99.99,,,0.01,weatherlink.com 1.10,2013-10-09 03:42:00,
2013-10-08 23:57:00,38.5,38.0,30.42,SSW,207,0.0,-999.0,96,-99.99,,,0.01,weatherlink.com 1.10,2013-10-09 03:57:00,